sensor_id;sensor_type;location;lat;lon;timestamp;P1;durP1;ratioP1;P2;durP2;ratioP2
17991;SDS011;9121;50.926;5.340;2024-03-02T00:01:34;1.07;;;0.70;;
17991;SDS011;9121;50.926;5.340;2024-03-02T00:04:03;1.23;;;0.80;;
17991;SDS011;9121;50.926;5.340;2024-03-02T00:06:33;1.37;;;0.67;;
17991;SDS011;9121;50.926;5.340;2024-03-02T00:09:00;1.87;;;0.77;;
17991;SDS011;9121;50.926;5.340;2024-03-02T00:11:27;0.77;;;0.70;;
17991;SDS011;9121;50.926;5.340;2024-03-02T00:13:54;1.40;;;0.77;;
17991;SDS011;9121;50.926;5.340;2024-03-02T00:16:21;2.43;;;1.07;;
17991;SDS011;9121;50.926;5.340;2024-03-02T00:18:49;1.57;;;0.80;;
17991;SDS011;9121;50.926;5.340;2024-03-02T00:21:16;2.47;;;0.80;;
17991;SDS011;9121;50.926;5.340;2024-03-02T00:23:47;0.70;;;0.70;;
17991;SDS011;9121;50.926;5.340;2024-03-02T00:26:15;1.60;;;0.70;;
17991;SDS011;9121;50.926;5.340;2024-03-02T00:28:42;3.80;;;0.90;;
17991;SDS011;9121;50.926;5.340;2024-03-02T00:31:11;0.77;;;0.70;;
17991;SDS011;9121;50.926;5.340;2024-03-02T00:33:40;1.93;;;0.87;;
17991;SDS011;9121;50.926;5.340;2024-03-02T00:36:08;0.70;;;0.70;;
17991;SDS011;9121;50.926;5.340;2024-03-02T00:38:41;0.87;;;0.70;;
17991;SDS011;9121;50.926;5.340;2024-03-02T00:41:15;0.97;;;0.70;;
17991;SDS011;9121;50.926;5.340;2024-03-02T00:43:47;4.47;;;1.00;;
17991;SDS011;9121;50.926;5.340;2024-03-02T00:46:19;2.23;;;0.93;;
17991;SDS011;9121;50.926;5.340;2024-03-02T00:48:48;1.60;;;0.90;;
17991;SDS011;9121;50.926;5.340;2024-03-02T00:51:19;0.63;;;0.63;;
17991;SDS011;9121;50.926;5.340;2024-03-02T00:53:46;0.80;;;0.60;;
17991;SDS011;9121;50.926;5.340;2024-03-02T00:56:15;0.90;;;0.90;;
17991;SDS011;9121;50.926;5.340;2024-03-02T00:58:42;0.80;;;0.80;;
17991;SDS011;9121;50.926;5.340;2024-03-02T01:01:09;0.80;;;0.80;;
17991;SDS011;9121;50.926;5.340;2024-03-02T01:03:36;0.70;;;0.70;;
17991;SDS011;9121;50.926;5.340;2024-03-02T01:06:04;1.50;;;0.80;;
17991;SDS011;9121;50.926;5.340;2024-03-02T01:08:32;0.60;;;0.60;;
17991;SDS011;9121;50.926;5.340;2024-03-02T01:10:59;2.30;;;0.60;;
17991;SDS011;9121;50.926;5.340;2024-03-02T01:13:28;1.40;;;0.70;;
17991;SDS011;9121;50.926;5.340;2024-03-02T01:15:55;0.60;;;0.60;;
17991;SDS011;9121;50.926;5.340;2024-03-02T01:18:22;0.63;;;0.60;;
17991;SDS011;9121;50.926;5.340;2024-03-02T01:20:49;1.17;;;0.60;;
17991;SDS011;9121;50.926;5.340;2024-03-02T01:23:17;0.90;;;0.80;;
17991;SDS011;9121;50.926;5.340;2024-03-02T01:25:45;0.70;;;0.70;;
17991;SDS011;9121;50.926;5.340;2024-03-02T01:28:12;1.23;;;0.70;;
17991;SDS011;9121;50.926;5.340;2024-03-02T01:30:41;1.77;;;0.77;;
17991;SDS011;9121;50.926;5.340;2024-03-02T01:33:08;0.60;;;0.60;;
17991;SDS011;9121;50.926;5.340;2024-03-02T01:35:35;0.70;;;0.70;;
17991;SDS011;9121;50.926;5.340;2024-03-02T01:38:02;0.77;;;0.60;;
17991;SDS011;9121;50.926;5.340;2024-03-02T01:40:31;0.60;;;0.60;;
17991;SDS011;9121;50.926;5.340;2024-03-02T01:42:58;0.60;;;0.60;;
17991;SDS011;9121;50.926;5.340;2024-03-02T01:45:25;0.63;;;0.60;;
17991;SDS011;9121;50.926;5.340;2024-03-02T01:47:53;0.70;;;0.70;;
17991;SDS011;9121;50.926;5.340;2024-03-02T01:50:26;1.33;;;0.60;;
17991;SDS011;9121;50.926;5.340;2024-03-02T01:52:55;1.87;;;0.70;;
17991;SDS011;9121;50.926;5.340;2024-03-02T01:55:22;0.87;;;0.70;;
17991;SDS011;9121;50.926;5.340;2024-03-02T01:57:49;1.03;;;0.70;;
17991;SDS011;9121;50.926;5.340;2024-03-02T02:00:17;1.50;;;0.90;;
17991;SDS011;9121;50.926;5.340;2024-03-02T02:02:45;1.17;;;0.60;;
17991;SDS011;9121;50.926;5.340;2024-03-02T02:05:19;0.90;;;0.60;;
17991;SDS011;9121;50.926;5.340;2024-03-02T02:07:47;0.60;;;0.60;;
17991;SDS011;9121;50.926;5.340;2024-03-02T02:10:14;0.60;;;0.60;;
17991;SDS011;9121;50.926;5.340;2024-03-02T02:12:41;3.00;;;0.73;;
17991;SDS011;9121;50.926;5.340;2024-03-02T02:15:24;2.43;;;0.60;;
17991;SDS011;9121;50.926;5.340;2024-03-02T02:17:51;2.00;;;0.70;;
17991;SDS011;9121;50.926;5.340;2024-03-02T02:20:20;1.43;;;0.80;;
17991;SDS011;9121;50.926;5.340;2024-03-02T02:22:56;2.07;;;0.60;;
17991;SDS011;9121;50.926;5.340;2024-03-02T02:25:23;1.50;;;0.70;;
17991;SDS011;9121;50.926;5.340;2024-03-02T02:27:51;2.73;;;1.17;;
17991;SDS011;9121;50.926;5.340;2024-03-02T02:30:18;2.90;;;0.50;;
17991;SDS011;9121;50.926;5.340;2024-03-02T02:32:47;1.40;;;0.90;;
17991;SDS011;9121;50.926;5.340;2024-03-02T02:35:14;0.60;;;0.60;;
17991;SDS011;9121;50.926;5.340;2024-03-02T02:37:41;2.30;;;0.70;;
17991;SDS011;9121;50.926;5.340;2024-03-02T02:40:10;0.80;;;0.80;;
17991;SDS011;9121;50.926;5.340;2024-03-02T02:42:38;2.17;;;0.70;;
17991;SDS011;9121;50.926;5.340;2024-03-02T02:45:05;0.60;;;0.60;;
17991;SDS011;9121;50.926;5.340;2024-03-02T02:47:33;3.03;;;0.70;;
17991;SDS011;9121;50.926;5.340;2024-03-02T02:50:00;3.60;;;0.70;;
17991;SDS011;9121;50.926;5.340;2024-03-02T02:52:30;1.67;;;0.70;;
17991;SDS011;9121;50.926;5.340;2024-03-02T02:55:00;0.97;;;0.70;;
17991;SDS011;9121;50.926;5.340;2024-03-02T02:57:30;0.73;;;0.60;;
17991;SDS011;9121;50.926;5.340;2024-03-02T03:00:00;1.13;;;0.70;;
17991;SDS011;9121;50.926;5.340;2024-03-02T03:02:35;3.00;;;0.60;;
17991;SDS011;9121;50.926;5.340;2024-03-02T03:05:02;0.67;;;0.67;;
17991;SDS011;9121;50.926;5.340;2024-03-02T03:07:31;1.60;;;0.80;;
17991;SDS011;9121;50.926;5.340;2024-03-02T03:09:58;1.37;;;0.80;;
17991;SDS011;9121;50.926;5.340;2024-03-02T03:12:25;0.87;;;0.80;;
17991;SDS011;9121;50.926;5.340;2024-03-02T03:14:53;2.73;;;0.83;;
17991;SDS011;9121;50.926;5.340;2024-03-02T03:17:20;0.90;;;0.60;;
17991;SDS011;9121;50.926;5.340;2024-03-02T03:19:48;0.70;;;0.60;;
17991;SDS011;9121;50.926;5.340;2024-03-02T03:22:15;0.70;;;0.70;;
17991;SDS011;9121;50.926;5.340;2024-03-02T03:24:42;0.50;;;0.50;;
17991;SDS011;9121;50.926;5.340;2024-03-02T03:27:09;2.33;;;0.60;;
17991;SDS011;9121;50.926;5.340;2024-03-02T03:29:36;0.70;;;0.63;;
17991;SDS011;9121;50.926;5.340;2024-03-02T03:32:05;0.67;;;0.67;;
17991;SDS011;9121;50.926;5.340;2024-03-02T03:34:33;1.40;;;0.80;;
17991;SDS011;9121;50.926;5.340;2024-03-02T03:37:00;1.07;;;0.70;;
17991;SDS011;9121;50.926;5.340;2024-03-02T03:39:27;0.60;;;0.60;;
17991;SDS011;9121;50.926;5.340;2024-03-02T03:41:54;3.10;;;0.60;;
17991;SDS011;9121;50.926;5.340;2024-03-02T03:44:21;1.57;;;0.70;;
17991;SDS011;9121;50.926;5.340;2024-03-02T03:46:48;1.27;;;0.60;;
17991;SDS011;9121;50.926;5.340;2024-03-02T03:49:16;0.80;;;0.70;;
17991;SDS011;9121;50.926;5.340;2024-03-02T03:51:43;0.93;;;0.60;;
17991;SDS011;9121;50.926;5.340;2024-03-02T03:54:10;0.53;;;0.53;;
17991;SDS011;9121;50.926;5.340;2024-03-02T03:56:37;1.03;;;0.73;;
17991;SDS011;9121;50.926;5.340;2024-03-02T03:59:04;2.73;;;0.70;;
17991;SDS011;9121;50.926;5.340;2024-03-02T04:01:31;2.00;;;0.60;;
17991;SDS011;9121;50.926;5.340;2024-03-02T04:03:58;1.83;;;0.70;;
17991;SDS011;9121;50.926;5.340;2024-03-02T04:06:28;1.63;;;0.77;;
17991;SDS011;9121;50.926;5.340;2024-03-02T04:08:55;2.30;;;0.90;;
17991;SDS011;9121;50.926;5.340;2024-03-02T04:11:22;2.83;;;0.70;;
17991;SDS011;9121;50.926;5.340;2024-03-02T04:13:49;0.67;;;0.67;;
17991;SDS011;9121;50.926;5.340;2024-03-02T04:16:16;4.70;;;0.70;;
17991;SDS011;9121;50.926;5.340;2024-03-02T04:18:43;1.90;;;0.60;;
17991;SDS011;9121;50.926;5.340;2024-03-02T04:21:10;2.10;;;0.80;;
17991;SDS011;9121;50.926;5.340;2024-03-02T04:23:38;1.00;;;0.70;;
17991;SDS011;9121;50.926;5.340;2024-03-02T04:26:05;0.60;;;0.60;;
17991;SDS011;9121;50.926;5.340;2024-03-02T04:28:32;4.40;;;0.90;;
17991;SDS011;9121;50.926;5.340;2024-03-02T04:30:59;1.20;;;0.80;;
17991;SDS011;9121;50.926;5.340;2024-03-02T04:33:26;4.53;;;1.23;;
17991;SDS011;9121;50.926;5.340;2024-03-02T04:35:53;1.53;;;0.70;;
17991;SDS011;9121;50.926;5.340;2024-03-02T04:38:20;3.20;;;0.80;;
17991;SDS011;9121;50.926;5.340;2024-03-02T04:40:48;3.40;;;0.90;;
17991;SDS011;9121;50.926;5.340;2024-03-02T04:43:15;1.80;;;0.70;;
17991;SDS011;9121;50.926;5.340;2024-03-02T04:45:43;3.70;;;0.80;;
17991;SDS011;9121;50.926;5.340;2024-03-02T04:48:10;0.90;;;0.60;;
17991;SDS011;9121;50.926;5.340;2024-03-02T04:50:37;2.13;;;0.70;;
17991;SDS011;9121;50.926;5.340;2024-03-02T04:53:04;1.93;;;0.70;;
17991;SDS011;9121;50.926;5.340;2024-03-02T04:55:31;4.50;;;0.90;;
17991;SDS011;9121;50.926;5.340;2024-03-02T04:58:28;2.53;;;1.07;;
17991;SDS011;9121;50.926;5.340;2024-03-02T05:00:55;1.30;;;0.80;;
17991;SDS011;9121;50.926;5.340;2024-03-02T05:03:22;2.23;;;0.80;;
17991;SDS011;9121;50.926;5.340;2024-03-02T05:05:49;2.80;;;0.70;;
17991;SDS011;9121;50.926;5.340;2024-03-02T05:08:16;3.43;;;0.77;;
17991;SDS011;9121;50.926;5.340;2024-03-02T05:10:43;1.30;;;0.77;;
17991;SDS011;9121;50.926;5.340;2024-03-02T05:13:10;2.33;;;0.80;;
17991;SDS011;9121;50.926;5.340;2024-03-02T05:15:39;2.00;;;0.80;;
17991;SDS011;9121;50.926;5.340;2024-03-02T05:18:06;4.57;;;0.80;;
17991;SDS011;9121;50.926;5.340;2024-03-02T05:20:33;2.07;;;0.70;;
17991;SDS011;9121;50.926;5.340;2024-03-02T05:23:00;1.57;;;0.90;;
17991;SDS011;9121;50.926;5.340;2024-03-02T05:25:27;4.83;;;0.97;;
17991;SDS011;9121;50.926;5.340;2024-03-02T05:27:54;7.13;;;1.40;;
17991;SDS011;9121;50.926;5.340;2024-03-02T05:30:21;2.77;;;0.90;;
17991;SDS011;9121;50.926;5.340;2024-03-02T05:32:49;3.47;;;0.90;;
17991;SDS011;9121;50.926;5.340;2024-03-02T05:35:16;4.20;;;0.90;;
17991;SDS011;9121;50.926;5.340;2024-03-02T05:37:42;4.40;;;1.03;;
17991;SDS011;9121;50.926;5.340;2024-03-02T05:40:09;2.57;;;0.90;;
17991;SDS011;9121;50.926;5.340;2024-03-02T05:42:38;1.13;;;0.90;;
17991;SDS011;9121;50.926;5.340;2024-03-02T05:45:06;2.43;;;0.90;;
17991;SDS011;9121;50.926;5.340;2024-03-02T05:47:34;2.20;;;0.90;;
17991;SDS011;9121;50.926;5.340;2024-03-02T05:50:02;1.23;;;0.90;;
17991;SDS011;9121;50.926;5.340;2024-03-02T05:52:30;3.37;;;0.90;;
17991;SDS011;9121;50.926;5.340;2024-03-02T05:54:57;2.43;;;0.87;;
17991;SDS011;9121;50.926;5.340;2024-03-02T05:57:24;2.03;;;0.90;;
17991;SDS011;9121;50.926;5.340;2024-03-02T06:00:10;5.03;;;1.00;;
17991;SDS011;9121;50.926;5.340;2024-03-02T06:02:39;2.87;;;1.20;;
17991;SDS011;9121;50.926;5.340;2024-03-02T06:05:07;5.47;;;1.30;;
17991;SDS011;9121;50.926;5.340;2024-03-02T06:07:34;2.30;;;1.13;;
17991;SDS011;9121;50.926;5.340;2024-03-02T06:10:01;5.50;;;1.07;;
17991;SDS011;9121;50.926;5.340;2024-03-02T06:12:30;3.93;;;0.90;;
17991;SDS011;9121;50.926;5.340;2024-03-02T06:14:57;4.67;;;1.20;;
17991;SDS011;9121;50.926;5.340;2024-03-02T06:17:24;2.90;;;1.27;;
17991;SDS011;9121;50.926;5.340;2024-03-02T06:19:51;5.47;;;1.00;;
17991;SDS011;9121;50.926;5.340;2024-03-02T06:22:19;2.23;;;0.80;;
17991;SDS011;9121;50.926;5.340;2024-03-02T06:24:48;4.07;;;0.90;;
17991;SDS011;9121;50.926;5.340;2024-03-02T06:27:15;2.07;;;0.90;;
17991;SDS011;9121;50.926;5.340;2024-03-02T06:29:42;3.40;;;1.10;;
17991;SDS011;9121;50.926;5.340;2024-03-02T06:32:08;1.57;;;1.10;;
17991;SDS011;9121;50.926;5.340;2024-03-02T06:34:35;3.10;;;1.00;;
17991;SDS011;9121;50.926;5.340;2024-03-02T06:37:01;5.60;;;1.17;;
17991;SDS011;9121;50.926;5.340;2024-03-02T06:39:30;8.33;;;1.67;;
17991;SDS011;9121;50.926;5.340;2024-03-02T06:41:59;4.57;;;1.07;;
17991;SDS011;9121;50.926;5.340;2024-03-02T06:44:26;3.67;;;0.93;;
17991;SDS011;9121;50.926;5.340;2024-03-02T06:46:53;4.73;;;0.80;;
17991;SDS011;9121;50.926;5.340;2024-03-02T06:49:20;3.83;;;1.00;;
17991;SDS011;9121;50.926;5.340;2024-03-02T06:51:47;3.80;;;1.30;;
17991;SDS011;9121;50.926;5.340;2024-03-02T06:54:15;7.43;;;1.00;;
17991;SDS011;9121;50.926;5.340;2024-03-02T06:56:43;2.70;;;0.90;;
17991;SDS011;9121;50.926;5.340;2024-03-02T06:59:10;3.27;;;1.10;;
17991;SDS011;9121;50.926;5.340;2024-03-02T07:01:37;3.93;;;1.00;;
17991;SDS011;9121;50.926;5.340;2024-03-02T07:04:04;4.17;;;1.13;;
17991;SDS011;9121;50.926;5.340;2024-03-02T07:06:31;4.00;;;1.20;;
17991;SDS011;9121;50.926;5.340;2024-03-02T07:08:58;8.17;;;1.20;;
17991;SDS011;9121;50.926;5.340;2024-03-02T07:11:25;1.93;;;0.93;;
17991;SDS011;9121;50.926;5.340;2024-03-02T07:13:53;5.80;;;1.23;;
17991;SDS011;9121;50.926;5.340;2024-03-02T07:16:20;5.87;;;1.17;;
17991;SDS011;9121;50.926;5.340;2024-03-02T07:18:53;6.70;;;2.13;;
17991;SDS011;9121;50.926;5.340;2024-03-02T07:21:21;6.97;;;1.30;;
17991;SDS011;9121;50.926;5.340;2024-03-02T07:23:48;6.17;;;1.50;;
17991;SDS011;9121;50.926;5.340;2024-03-02T07:26:16;2.57;;;1.23;;
17991;SDS011;9121;50.926;5.340;2024-03-02T07:28:44;4.37;;;1.33;;
17991;SDS011;9121;50.926;5.340;2024-03-02T07:31:13;4.43;;;1.07;;
17991;SDS011;9121;50.926;5.340;2024-03-02T07:33:40;4.70;;;1.20;;
17991;SDS011;9121;50.926;5.340;2024-03-02T07:36:07;3.37;;;1.40;;
17991;SDS011;9121;50.926;5.340;2024-03-02T07:38:34;5.10;;;1.33;;
17991;SDS011;9121;50.926;5.340;2024-03-02T07:41:01;5.67;;;1.33;;
17991;SDS011;9121;50.926;5.340;2024-03-02T07:43:29;6.60;;;1.30;;
17991;SDS011;9121;50.926;5.340;2024-03-02T07:45:58;3.63;;;1.40;;
17991;SDS011;9121;50.926;5.340;2024-03-02T07:48:26;7.47;;;1.50;;
17991;SDS011;9121;50.926;5.340;2024-03-02T07:50:53;2.93;;;1.30;;
17991;SDS011;9121;50.926;5.340;2024-03-02T07:53:20;4.60;;;1.30;;
17991;SDS011;9121;50.926;5.340;2024-03-02T07:55:47;5.23;;;1.20;;
17991;SDS011;9121;50.926;5.340;2024-03-02T07:58:14;1.50;;;1.03;;
17991;SDS011;9121;50.926;5.340;2024-03-02T08:00:43;5.30;;;1.13;;
17991;SDS011;9121;50.926;5.340;2024-03-02T08:03:10;2.23;;;1.03;;
17991;SDS011;9121;50.926;5.340;2024-03-02T08:05:39;8.17;;;2.00;;
17991;SDS011;9121;50.926;5.340;2024-03-02T08:08:06;8.20;;;1.67;;
17991;SDS011;9121;50.926;5.340;2024-03-02T08:10:33;4.57;;;1.33;;
17991;SDS011;9121;50.926;5.340;2024-03-02T08:12:59;9.43;;;1.40;;
17991;SDS011;9121;50.926;5.340;2024-03-02T08:15:27;6.30;;;1.20;;
17991;SDS011;9121;50.926;5.340;2024-03-02T08:17:53;1.30;;;1.00;;
17991;SDS011;9121;50.926;5.340;2024-03-02T08:20:21;7.13;;;1.30;;
17991;SDS011;9121;50.926;5.340;2024-03-02T08:22:49;4.43;;;1.13;;
17991;SDS011;9121;50.926;5.340;2024-03-02T08:25:20;2.93;;;1.00;;
17991;SDS011;9121;50.926;5.340;2024-03-02T08:27:47;8.40;;;1.97;;
17991;SDS011;9121;50.926;5.340;2024-03-02T08:30:14;5.07;;;1.30;;
17991;SDS011;9121;50.926;5.340;2024-03-02T08:32:41;3.87;;;1.00;;
17991;SDS011;9121;50.926;5.340;2024-03-02T08:35:08;3.60;;;0.83;;
17991;SDS011;9121;50.926;5.340;2024-03-02T08:37:35;4.60;;;1.10;;
17991;SDS011;9121;50.926;5.340;2024-03-02T08:40:07;2.03;;;0.97;;
17991;SDS011;9121;50.926;5.340;2024-03-02T08:42:35;6.77;;;1.30;;
17991;SDS011;9121;50.926;5.340;2024-03-02T08:45:02;5.13;;;1.30;;
17991;SDS011;9121;50.926;5.340;2024-03-02T08:47:31;8.27;;;1.43;;
17991;SDS011;9121;50.926;5.340;2024-03-02T08:49:58;9.03;;;1.43;;
17991;SDS011;9121;50.926;5.340;2024-03-02T08:52:25;3.77;;;1.43;;
17991;SDS011;9121;50.926;5.340;2024-03-02T08:54:52;2.37;;;1.10;;
17991;SDS011;9121;50.926;5.340;2024-03-02T08:57:21;3.40;;;1.03;;
17991;SDS011;9121;50.926;5.340;2024-03-02T08:59:48;6.20;;;1.40;;
17991;SDS011;9121;50.926;5.340;2024-03-02T09:02:15;5.47;;;1.30;;
17991;SDS011;9121;50.926;5.340;2024-03-02T09:04:42;7.60;;;1.60;;
17991;SDS011;9121;50.926;5.340;2024-03-02T09:07:09;7.50;;;1.57;;
17991;SDS011;9121;50.926;5.340;2024-03-02T09:09:36;8.03;;;1.30;;
17991;SDS011;9121;50.926;5.340;2024-03-02T09:12:04;5.37;;;1.30;;
17991;SDS011;9121;50.926;5.340;2024-03-02T09:14:32;5.53;;;1.77;;
17991;SDS011;9121;50.926;5.340;2024-03-02T09:17:00;7.23;;;1.20;;
17991;SDS011;9121;50.926;5.340;2024-03-02T09:19:27;6.97;;;0.97;;
17991;SDS011;9121;50.926;5.340;2024-03-02T09:21:54;4.83;;;1.40;;
17991;SDS011;9121;50.926;5.340;2024-03-02T09:24:22;8.83;;;1.37;;
17991;SDS011;9121;50.926;5.340;2024-03-02T09:26:49;5.40;;;1.43;;
17991;SDS011;9121;50.926;5.340;2024-03-02T09:29:16;5.40;;;1.60;;
17991;SDS011;9121;50.926;5.340;2024-03-02T09:31:47;7.70;;;1.40;;
17991;SDS011;9121;50.926;5.340;2024-03-02T09:34:14;5.90;;;1.00;;
17991;SDS011;9121;50.926;5.340;2024-03-02T09:36:41;7.37;;;1.03;;
17991;SDS011;9121;50.926;5.340;2024-03-02T09:39:09;10.73;;;1.50;;
17991;SDS011;9121;50.926;5.340;2024-03-02T09:41:36;5.90;;;1.17;;
17991;SDS011;9121;50.926;5.340;2024-03-02T09:44:03;5.53;;;1.30;;
17991;SDS011;9121;50.926;5.340;2024-03-02T09:46:31;2.97;;;1.13;;
17991;SDS011;9121;50.926;5.340;2024-03-02T09:48:59;9.70;;;1.80;;
17991;SDS011;9121;50.926;5.340;2024-03-02T09:51:26;6.53;;;1.30;;
17991;SDS011;9121;50.926;5.340;2024-03-02T09:53:54;6.80;;;1.30;;
17991;SDS011;9121;50.926;5.340;2024-03-02T09:56:21;5.83;;;1.30;;
17991;SDS011;9121;50.926;5.340;2024-03-02T09:58:48;9.50;;;1.33;;
17991;SDS011;9121;50.926;5.340;2024-03-02T10:01:15;5.07;;;1.50;;
17991;SDS011;9121;50.926;5.340;2024-03-02T10:03:42;4.05;;;1.75;;
17991;SDS011;9121;50.926;5.340;2024-03-02T10:06:20;4.00;;;1.20;;
17991;SDS011;9121;50.926;5.340;2024-03-02T10:08:47;11.50;;;1.63;;
17991;SDS011;9121;50.926;5.340;2024-03-02T10:11:23;5.90;;;1.50;;
17991;SDS011;9121;50.926;5.340;2024-03-02T10:14:03;7.50;;;1.40;;
17991;SDS011;9121;50.926;5.340;2024-03-02T10:16:33;6.73;;;1.40;;
17991;SDS011;9121;50.926;5.340;2024-03-02T10:19:14;9.82;;;1.45;;
17991;SDS011;9121;50.926;5.340;2024-03-02T10:21:43;5.43;;;1.00;;
17991;SDS011;9121;50.926;5.340;2024-03-02T10:24:11;4.93;;;1.25;;
17991;SDS011;9121;50.926;5.340;2024-03-02T10:26:38;4.07;;;1.40;;
17991;SDS011;9121;50.926;5.340;2024-03-02T10:29:06;11.93;;;2.07;;
17991;SDS011;9121;50.926;5.340;2024-03-02T10:31:35;7.63;;;1.75;;
17991;SDS011;9121;50.926;5.340;2024-03-02T10:34:03;11.07;;;1.60;;
17991;SDS011;9121;50.926;5.340;2024-03-02T10:36:31;10.32;;;1.10;;
17991;SDS011;9121;50.926;5.340;2024-03-02T10:39:01;3.42;;;1.20;;
17991;SDS011;9121;50.926;5.340;2024-03-02T10:41:29;5.97;;;1.52;;
17991;SDS011;9121;50.926;5.340;2024-03-02T10:43:59;8.52;;;1.50;;
17991;SDS011;9121;50.926;5.340;2024-03-02T10:46:28;3.65;;;1.30;;
17991;SDS011;9121;50.926;5.340;2024-03-02T10:48:57;10.48;;;1.60;;
17991;SDS011;9121;50.926;5.340;2024-03-02T10:51:24;6.68;;;1.50;;
17991;SDS011;9121;50.926;5.340;2024-03-02T10:53:52;19.75;;;2.08;;
17991;SDS011;9121;50.926;5.340;2024-03-02T10:56:26;10.88;;;1.70;;
17991;SDS011;9121;50.926;5.340;2024-03-02T10:58:55;6.15;;;1.52;;
17991;SDS011;9121;50.926;5.340;2024-03-02T11:01:29;7.57;;;1.50;;
17991;SDS011;9121;50.926;5.340;2024-03-02T11:03:57;6.68;;;1.50;;
17991;SDS011;9121;50.926;5.340;2024-03-02T11:06:28;6.00;;;1.50;;
17991;SDS011;9121;50.926;5.340;2024-03-02T11:08:58;7.88;;;1.35;;
17991;SDS011;9121;50.926;5.340;2024-03-02T11:11:32;2.67;;;1.17;;
17991;SDS011;9121;50.926;5.340;2024-03-02T11:14:04;5.45;;;1.10;;
17991;SDS011;9121;50.926;5.340;2024-03-02T11:16:34;5.53;;;1.35;;
17991;SDS011;9121;50.926;5.340;2024-03-02T11:19:04;9.15;;;1.40;;
17991;SDS011;9121;50.926;5.340;2024-03-02T11:21:33;6.82;;;1.73;;
17991;SDS011;9121;50.926;5.340;2024-03-02T11:24:05;5.43;;;1.40;;
17991;SDS011;9121;50.926;5.340;2024-03-02T11:26:59;7.78;;;1.88;;
17991;SDS011;9121;50.926;5.340;2024-03-02T11:29:43;18.02;;;2.08;;
17991;SDS011;9121;50.926;5.340;2024-03-02T11:32:18;6.28;;;1.30;;
17991;SDS011;9121;50.926;5.340;2024-03-02T11:34:48;6.63;;;1.35;;
17991;SDS011;9121;50.926;5.340;2024-03-02T11:37:16;8.77;;;1.63;;
17991;SDS011;9121;50.926;5.340;2024-03-02T11:39:45;5.88;;;1.25;;
17991;SDS011;9121;50.926;5.340;2024-03-02T11:42:14;4.65;;;1.90;;
17991;SDS011;9121;50.926;5.340;2024-03-02T11:44:43;5.45;;;1.50;;
17991;SDS011;9121;50.926;5.340;2024-03-02T11:47:12;6.53;;;1.40;;
17991;SDS011;9121;50.926;5.340;2024-03-02T11:49:41;8.48;;;1.80;;
17991;SDS011;9121;50.926;5.340;2024-03-02T11:52:10;4.90;;;1.52;;
17991;SDS011;9121;50.926;5.340;2024-03-02T11:54:39;5.18;;;1.27;;
17991;SDS011;9121;50.926;5.340;2024-03-02T11:57:11;6.20;;;1.50;;
17991;SDS011;9121;50.926;5.340;2024-03-02T11:59:41;3.38;;;1.40;;
17991;SDS011;9121;50.926;5.340;2024-03-02T12:02:12;7.93;;;1.67;;
17991;SDS011;9121;50.926;5.340;2024-03-02T12:04:41;7.63;;;1.40;;
17991;SDS011;9121;50.926;5.340;2024-03-02T12:07:10;4.78;;;1.40;;
17991;SDS011;9121;50.926;5.340;2024-03-02T12:09:37;2.55;;;1.27;;
17991;SDS011;9121;50.926;5.340;2024-03-02T12:12:04;5.38;;;1.45;;
17991;SDS011;9121;50.926;5.340;2024-03-02T12:14:33;5.57;;;1.27;;
17991;SDS011;9121;50.926;5.340;2024-03-02T12:17:02;7.35;;;1.90;;
17991;SDS011;9121;50.926;5.340;2024-03-02T12:19:30;5.43;;;1.63;;
17991;SDS011;9121;50.926;5.340;2024-03-02T12:21:57;4.65;;;1.40;;
17991;SDS011;9121;50.926;5.340;2024-03-02T12:24:26;4.03;;;1.40;;
17991;SDS011;9121;50.926;5.340;2024-03-02T12:26:54;5.53;;;1.30;;
17991;SDS011;9121;50.926;5.340;2024-03-02T12:29:21;7.13;;;1.42;;
17991;SDS011;9121;50.926;5.340;2024-03-02T12:31:49;3.72;;;1.52;;
17991;SDS011;9121;50.926;5.340;2024-03-02T12:34:18;4.07;;;1.35;;
17991;SDS011;9121;50.926;5.340;2024-03-02T12:36:45;4.93;;;1.30;;
17991;SDS011;9121;50.926;5.340;2024-03-02T12:39:14;3.88;;;1.30;;
17991;SDS011;9121;50.926;5.340;2024-03-02T12:41:42;5.38;;;1.15;;
17991;SDS011;9121;50.926;5.340;2024-03-02T12:44:09;3.10;;;1.30;;
17991;SDS011;9121;50.926;5.340;2024-03-02T12:46:36;3.63;;;1.33;;
17991;SDS011;9121;50.926;5.340;2024-03-02T12:49:10;5.38;;;1.70;;
17991;SDS011;9121;50.926;5.340;2024-03-02T12:51:40;2.67;;;1.42;;
17991;SDS011;9121;50.926;5.340;2024-03-02T12:54:08;3.58;;;1.55;;
17991;SDS011;9121;50.926;5.340;2024-03-02T12:56:36;4.43;;;1.40;;
17991;SDS011;9121;50.926;5.340;2024-03-02T12:59:03;4.47;;;1.60;;
17991;SDS011;9121;50.926;5.340;2024-03-02T13:01:31;3.95;;;1.27;;
17991;SDS011;9121;50.926;5.340;2024-03-02T13:03:58;4.30;;;1.27;;
17991;SDS011;9121;50.926;5.340;2024-03-02T13:06:25;3.60;;;1.15;;
17991;SDS011;9121;50.926;5.340;2024-03-02T13:08:55;7.13;;;1.40;;
17991;SDS011;9121;50.926;5.340;2024-03-02T13:11:22;4.03;;;1.20;;
17991;SDS011;9121;50.926;5.340;2024-03-02T13:13:50;4.75;;;1.42;;
17991;SDS011;9121;50.926;5.340;2024-03-02T13:16:17;4.47;;;1.08;;
17991;SDS011;9121;50.926;5.340;2024-03-02T13:18:45;3.67;;;1.15;;
17991;SDS011;9121;50.926;5.340;2024-03-02T13:21:12;3.83;;;1.20;;
17991;SDS011;9121;50.926;5.340;2024-03-02T13:23:39;4.63;;;1.38;;
17991;SDS011;9121;50.926;5.340;2024-03-02T13:26:08;2.63;;;1.15;;
17991;SDS011;9121;50.926;5.340;2024-03-02T13:28:37;3.47;;;1.27;;
17991;SDS011;9121;50.926;5.340;2024-03-02T13:31:04;2.30;;;1.15;;
17991;SDS011;9121;50.926;5.340;2024-03-02T13:33:32;5.57;;;1.15;;
17991;SDS011;9121;50.926;5.340;2024-03-02T13:35:58;4.82;;;1.10;;
17991;SDS011;9121;50.926;5.340;2024-03-02T13:38:26;4.60;;;1.20;;
17991;SDS011;9121;50.926;5.340;2024-03-02T13:40:53;2.80;;;1.05;;
17991;SDS011;9121;50.926;5.340;2024-03-02T13:43:22;2.50;;;0.90;;
17991;SDS011;9121;50.926;5.340;2024-03-02T13:45:49;3.60;;;1.10;;
17991;SDS011;9121;50.926;5.340;2024-03-02T13:48:18;4.68;;;1.08;;
17991;SDS011;9121;50.926;5.340;2024-03-02T13:50:45;3.22;;;1.25;;
17991;SDS011;9121;50.926;5.340;2024-03-02T13:53:12;3.38;;;1.05;;
17991;SDS011;9121;50.926;5.340;2024-03-02T13:55:40;7.13;;;1.55;;
17991;SDS011;9121;50.926;5.340;2024-03-02T13:58:08;2.08;;;1.10;;
17991;SDS011;9121;50.926;5.340;2024-03-02T14:00:37;1.98;;;1.00;;
17991;SDS011;9121;50.926;5.340;2024-03-02T14:03:05;4.35;;;1.20;;
17991;SDS011;9121;50.926;5.340;2024-03-02T14:05:33;3.25;;;1.10;;
17991;SDS011;9121;50.926;5.340;2024-03-02T14:08:00;2.55;;;1.08;;
17991;SDS011;9121;50.926;5.340;2024-03-02T14:10:27;3.75;;;1.20;;
17991;SDS011;9121;50.926;5.340;2024-03-02T14:12:54;1.25;;;0.93;;
17991;SDS011;9121;50.926;5.340;2024-03-02T14:15:21;7.45;;;1.10;;
17991;SDS011;9121;50.926;5.340;2024-03-02T14:17:50;2.67;;;1.15;;
17991;SDS011;9121;50.926;5.340;2024-03-02T14:20:16;4.45;;;1.40;;
17991;SDS011;9121;50.926;5.340;2024-03-02T14:22:47;1.42;;;1.05;;
17991;SDS011;9121;50.926;5.340;2024-03-02T14:25:14;1.60;;;0.90;;
17991;SDS011;9121;50.926;5.340;2024-03-02T14:27:42;2.83;;;1.20;;
17991;SDS011;9121;50.926;5.340;2024-03-02T14:30:09;2.45;;;1.00;;
17991;SDS011;9121;50.926;5.340;2024-03-02T14:32:37;3.38;;;1.10;;
17991;SDS011;9121;50.926;5.340;2024-03-02T14:35:06;2.05;;;1.10;;
17991;SDS011;9121;50.926;5.340;2024-03-02T14:37:36;3.60;;;0.93;;
17991;SDS011;9121;50.926;5.340;2024-03-02T14:40:04;2.63;;;1.17;;
17991;SDS011;9121;50.926;5.340;2024-03-02T14:42:34;3.75;;;1.30;;
17991;SDS011;9121;50.926;5.340;2024-03-02T14:45:01;3.10;;;1.20;;
17991;SDS011;9121;50.926;5.340;2024-03-02T14:47:30;1.75;;;1.10;;
17991;SDS011;9121;50.926;5.340;2024-03-02T14:49:58;4.35;;;1.30;;
17991;SDS011;9121;50.926;5.340;2024-03-02T14:52:26;4.15;;;1.42;;
17991;SDS011;9121;50.926;5.340;2024-03-02T14:54:53;2.55;;;1.30;;
17991;SDS011;9121;50.926;5.340;2024-03-02T14:57:20;2.85;;;1.38;;
17991;SDS011;9121;50.926;5.340;2024-03-02T14:59:47;4.07;;;1.55;;
17991;SDS011;9121;50.926;5.340;2024-03-02T15:02:14;1.40;;;1.23;;
17991;SDS011;9121;50.926;5.340;2024-03-02T15:04:41;4.47;;;1.55;;
17991;SDS011;9121;50.926;5.340;2024-03-02T15:07:10;3.28;;;1.40;;